Time;durP1;ratioP1;P1;durP2;ratioP2;P2;SDS_P1;SDS_P2;PMS_P1;PMS_P2;Temp;Humidity;BMP_temperature;BMP_pressure;BME280_temperature;BME280_humidity;BME280_pressure;Samples;Min_cycle;Max_cycle;Signal;HPM_P1;HPM_P2
2023/09/08 00:00:19;;;;;;;7.10;5.20;;;16.20;99.90;;;;;;496587;239;29787;-74
2023/09/08 00:02:21;;;;;;;7.17;5.87;;;16.20;99.90;;;;;;496553;239;28797;-74
2023/09/08 00:04:22;;;;;;;6.50;5.30;;;16.20;99.90;;;;;;496549;239;28823;-75
2023/09/08 00:06:23;;;;;;;8.53;5.37;;;16.10;99.90;;;;;;496604;239;29331;-75
2023/09/08 00:08:31;;;;;;;6.10;5.13;;;16.10;99.90;;;;;;496558;239;29357;-74
2023/09/08 00:10:32;;;;;;;6.03;5.43;;;16.10;99.90;;;;;;496619;239;28819;-75
2023/09/08 00:12:33;;;;;;;5.37;4.87;;;16.10;99.90;;;;;;496582;239;28857;-75
2023/09/08 00:14:34;;;;;;;5.77;5.27;;;16.00;99.90;;;;;;496666;239;29346;-73
2023/09/08 00:16:37;;;;;;;5.57;5.00;;;16.00;99.90;;;;;;496636;239;29329;-74
2023/09/08 00:18:37;;;;;;;6.03;5.43;;;15.90;99.90;;;;;;496603;239;28875;-76
2023/09/08 00:20:38;;;;;;;6.10;5.50;;;15.90;99.90;;;;;;496557;239;28918;-75
2023/09/08 00:22:40;;;;;;;6.17;5.23;;;15.90;99.90;;;;;;496608;239;28818;-75
2023/09/08 00:24:56;;;;;;;10.33;5.47;;;15.90;99.90;;;;;;496561;239;28922;-75
2023/09/08 00:26:57;;;;;;;5.13;4.73;;;15.90;99.90;;;;;;496606;239;28877;-79
2023/09/08 00:29:02;;;;;;;6.60;5.30;;;15.80;99.90;;;;;;496614;239;29282;-75
2023/09/08 00:31:04;;;;;;;6.50;5.10;;;15.80;99.90;;;;;;496599;239;28872;-73
2023/09/08 00:33:08;;;;;;;6.73;5.20;;;15.80;99.90;;;;;;496539;239;28860;-75
2023/09/08 00:35:05;;;;;;;7.60;5.60;;;15.70;99.90;;;;;;496484;238;30000;-75
2023/09/08 00:37:07;;;;;;;6.57;5.40;;;15.70;99.90;;;;;;496617;239;29245;-75
2023/09/08 00:39:14;;;;;;;6.60;5.90;;;15.70;99.90;;;;;;496562;239;29395;-76
2023/09/08 00:41:15;;;;;;;6.87;5.27;;;15.70;99.90;;;;;;496588;239;28810;-74
2023/09/08 00:43:16;;;;;;;7.13;5.40;;;15.70;99.90;;;;;;496563;239;28898;-75
2023/09/08 00:45:17;;;;;;;5.43;4.93;;;15.60;99.90;;;;;;496547;239;29376;-75
2023/09/08 00:47:25;;;;;;;5.90;5.40;;;15.60;99.90;;;;;;496568;239;29268;-73
2023/09/08 00:49:26;;;;;;;5.80;5.27;;;15.60;99.90;;;;;;496594;239;28832;-74
2023/09/08 00:51:27;;;;;;;7.27;5.90;;;15.60;99.90;;;;;;496588;239;28867;-73
2023/09/08 00:53:28;;;;;;;6.80;6.07;;;15.60;99.90;;;;;;496591;239;29441;-75
2023/09/08 00:55:35;;;;;;;5.93;5.43;;;15.60;99.90;;;;;;496615;239;29288;-73
2023/09/08 00:57:37;;;;;;;7.23;6.10;;;15.60;99.90;;;;;;496595;239;28847;-74
2023/09/08 00:59:41;;;;;;;12.23;5.40;;;15.60;99.90;;;;;;496647;239;29235;-75
2023/09/08 01:01:42;;;;;;;7.03;6.43;;;15.60;99.90;;;;;;496579;239;28914;-75
2023/09/08 01:03:50;;;;;;;7.63;6.00;;;15.50;99.90;;;;;;496566;239;29262;-75
2023/09/08 01:05:51;;;;;;;6.10;5.50;;;15.50;99.90;;;;;;496605;239;28916;-75
2023/09/08 01:09:56;;;;;;;9.83;6.20;;;15.40;99.90;;;;;;496594;239;28839;-75
2023/09/08 01:12:01;;;;;;;6.03;5.53;;;15.40;99.90;;;;;;496578;239;28854;-76
2023/09/08 01:13:59;;;;;;;6.33;5.70;;;15.40;99.90;;;;;;496466;239;29295;-74
2023/09/08 01:16:09;;;;;;;6.30;5.70;;;15.40;99.90;;;;;;496600;239;29457;-73
2023/09/08 01:18:11;;;;;;;6.10;5.40;;;15.40;99.90;;;;;;496604;239;28933;-73
2023/09/08 01:20:12;;;;;;;6.13;5.53;;;15.40;99.90;;;;;;496578;239;28886;-74
2023/09/08 01:22:13;;;;;;;7.90;6.10;;;15.40;99.90;;;;;;496614;239;29305;-72
2023/09/08 01:26:19;;;;;;;6.10;5.50;;;15.40;99.90;;;;;;496617;239;28852;-73
2023/09/08 01:28:26;;;;;;;9.10;5.93;;;15.40;99.90;;;;;;496578;239;28872;-75
2023/09/08 01:30:27;;;;;;;6.03;5.50;;;15.40;99.90;;;;;;496472;239;28837;-74
2023/09/08 01:32:28;;;;;;;6.20;5.70;;;15.40;99.90;;;;;;496626;239;29378;-76
2023/09/08 01:34:30;;;;;;;9.57;5.47;;;15.40;99.90;;;;;;496648;239;29261;-75
2023/09/08 01:36:31;;;;;;;6.20;5.60;;;15.40;99.90;;;;;;496569;239;29330;-76
2023/09/08 01:38:32;;;;;;;6.30;5.70;;;15.40;99.90;;;;;;496627;239;29245;-74
2023/09/08 01:40:34;;;;;;;7.80;6.00;;;15.30;99.90;;;;;;496642;239;28804;-74
2023/09/08 01:42:35;;;;;;;5.90;5.40;;;15.30;99.90;;;;;;496629;239;29389;-76
2023/09/08 01:44:36;;;;;;;6.07;5.43;;;15.30;99.90;;;;;;496630;239;28801;-73
2023/09/08 01:46:38;;;;;;;6.47;5.87;;;15.20;99.90;;;;;;496595;239;29259;-73
2023/09/08 01:48:45;;;;;;;8.93;6.50;;;15.20;99.90;;;;;;496639;239;29320;-73
2023/09/08 01:50:46;;;;;;;6.03;5.43;;;15.20;99.90;;;;;;496655;239;28907;-73
2023/09/08 01:52:50;;;;;;;6.17;5.53;;;15.20;99.90;;;;;;496608;239;28840;-73
2023/09/08 01:54:52;;;;;;;7.00;5.63;;;15.20;99.90;;;;;;496636;239;28853;-72
2023/09/08 01:56:56;;;;;;;6.40;5.37;;;15.20;99.90;;;;;;496664;239;29454;-74
2023/09/08 01:58:59;;;;;;;12.73;5.60;;;15.20;99.90;;;;;;496588;239;28836;-73
2023/09/08 02:01:05;;;;;;;6.23;5.43;;;15.20;99.90;;;;;;496556;239;29284;-75
2023/09/08 02:03:06;;;;;;;6.83;5.30;;;15.20;99.90;;;;;;496583;239;28836;-75
2023/09/08 02:05:10;;;;;;;6.63;6.00;;;15.20;99.90;;;;;;496625;239;28887;-75
2023/09/08 02:07:11;;;;;;;6.40;5.80;;;15.20;99.90;;;;;;496624;239;28845;-72
2023/09/08 02:09:25;;;;;;;7.70;5.70;;;15.20;99.90;;;;;;496617;239;28889;-73
2023/09/08 02:11:26;;;;;;;6.10;5.50;;;15.20;99.90;;;;;;496636;239;28827;-74
2023/09/08 02:13:33;;;;;;;10.73;6.23;;;15.10;99.90;;;;;;496621;239;29362;-72
2023/09/08 02:15:34;;;;;;;8.50;6.17;;;15.10;99.90;;;;;;496604;239;28903;-76
2023/09/08 02:17:41;;;;;;;10.23;6.23;;;15.10;99.90;;;;;;496577;239;28832;-74
2023/09/08 02:19:42;;;;;;;7.77;6.90;;;15.10;99.90;;;;;;496578;239;28807;-74
2023/09/08 02:21:45;;;;;;;7.83;6.90;;;15.00;99.90;;;;;;496557;239;28848;-73
2023/09/08 02:23:46;;;;;;;8.50;6.90;;;15.00;99.90;;;;;;496609;239;28830;-73
2023/09/08 02:25:57;;;;;;;8.50;6.33;;;15.00;99.90;;;;;;496578;239;29429;-73
2023/09/08 02:27:58;;;;;;;6.50;5.90;;;15.00;99.90;;;;;;496573;239;28840;-74
2023/09/08 02:30:11;;;;;;;7.60;6.17;;;15.00;99.90;;;;;;496632;239;28928;-73
2023/09/08 02:32:14;;;;;;;6.40;5.80;;;14.90;99.90;;;;;;496631;239;28884;-74
2023/09/08 02:34:14;;;;;;;10.83;6.40;;;14.80;99.90;;;;;;496584;239;28930;-75
2023/09/08 02:36:25;;;;;;;9.00;6.70;;;14.80;99.90;;;;;;496547;239;29348;-74
2023/09/08 02:38:29;;;;;;;6.93;6.23;;;14.80;99.90;;;;;;496560;239;28855;-73
2023/09/08 02:40:33;;;;;;;6.20;5.60;;;14.80;99.90;;;;;;496595;239;28862;-76
2023/09/08 02:44:36;;;;;;;7.87;6.40;;;14.80;99.90;;;;;;496570;239;28834;-75
2023/09/08 02:46:44;;;;;;;6.47;5.60;;;14.80;99.90;;;;;;496607;239;29366;-75
2023/09/08 02:48:45;;;;;;;6.70;6.00;;;14.90;99.90;;;;;;496589;239;28884;-76
2023/09/08 02:50:55;;;;;;;6.10;5.50;;;14.90;99.90;;;;;;496420;239;28912;-72
2023/09/08 02:52:57;;;;;;;7.13;6.33;;;14.90;99.90;;;;;;496611;239;28843;-73
2023/09/08 02:54:58;;;;;;;7.67;6.87;;;14.90;99.90;;;;;;496562;239;28830;-78
2023/09/08 02:56:59;;;;;;;9.27;6.27;;;14.90;99.90;;;;;;496501;239;29665;-75
2023/09/08 02:59:02;;;;;;;7.70;6.83;;;14.90;99.90;;;;;;496559;239;29317;-75
2023/09/08 03:01:04;;;;;;;7.07;5.80;;;14.80;99.90;;;;;;496612;239;28959;-75
2023/09/08 03:03:08;;;;;;;6.10;5.50;;;14.80;99.90;;;;;;496607;239;28878;-74
2023/09/08 03:05:09;;;;;;;7.20;6.00;;;14.80;99.90;;;;;;496562;239;28865;-72
2023/09/08 03:07:26;;;;;;;7.40;5.87;;;14.90;99.90;;;;;;496552;239;29374;-75
2023/09/08 03:09:27;;;;;;;7.10;6.40;;;14.90;99.90;;;;;;496592;239;29244;-74
2023/09/08 03:11:29;;;;;;;6.67;5.97;;;14.90;99.90;;;;;;496551;239;28898;-74
2023/09/08 03:13:30;;;;;;;7.33;5.90;;;14.90;99.90;;;;;;496570;239;30140;-72
2023/09/08 03:15:43;;;;;;;6.57;5.87;;;14.80;99.90;;;;;;496588;239;29215;-73
2023/09/08 03:17:44;;;;;;;8.70;6.33;;;14.80;99.90;;;;;;496520;239;28846;-73
2023/09/08 03:19:46;;;;;;;10.83;6.07;;;14.80;99.90;;;;;;496564;239;29431;-76
2023/09/08 03:21:47;;;;;;;6.90;6.20;;;14.80;99.90;;;;;;496596;239;29254;-72
2023/09/08 03:23:48;;;;;;;7.37;6.67;;;14.80;99.90;;;;;;496537;239;29323;-73
2023/09/08 03:25:50;;;;;;;8.27;6.30;;;14.70;99.90;;;;;;496561;239;28958;-76
2023/09/08 03:27:51;;;;;;;9.40;6.97;;;14.70;99.90;;;;;;496565;239;28919;-74
2023/09/08 03:29:52;;;;;;;7.53;6.83;;;14.70;99.90;;;;;;496567;239;28879;-76
2023/09/08 03:32:09;;;;;;;6.57;5.97;;;14.80;99.90;;;;;;496501;239;28795;-76
2023/09/08 03:34:10;;;;;;;7.30;6.60;;;14.80;99.90;;;;;;496593;239;28891;-73
2023/09/08 03:38:37;;;;;;;7.00;6.30;;;14.70;99.90;;;;;;496580;236;28813;-75
2023/09/08 03:40:38;;;;;;;8.00;6.83;;;14.70;99.90;;;;;;496599;239;28926;-78
2023/09/08 03:42:51;;;;;;;6.80;6.07;;;14.70;99.90;;;;;;496601;239;28799;-74
2023/09/08 03:44:52;;;;;;;7.50;6.30;;;14.60;99.90;;;;;;496611;239;28853;-73
2023/09/08 03:49:00;;;;;;;9.47;6.60;;;14.60;99.90;;;;;;496591;239;28846;-75
2023/09/08 03:51:03;;;;;;;9.77;7.10;;;14.60;99.90;;;;;;496617;239;29322;-75
2023/09/08 03:53:05;;;;;;;7.30;6.10;;;14.60;99.90;;;;;;496615;239;28833;-74
2023/09/08 03:55:16;;;;;;;6.90;6.30;;;14.60;99.90;;;;;;496601;239;28795;-75
2023/09/08 03:57:17;;;;;;;6.90;6.20;;;14.60;99.90;;;;;;496631;239;28863;-76
2023/09/08 04:01:23;;;;;;;7.50;6.80;;;14.60;99.90;;;;;;496618;239;28851;-76
2023/09/08 04:03:24;;;;;;;7.00;6.30;;;14.50;99.90;;;;;;496595;239;28813;-75
2023/09/08 04:05:25;;;;;;;9.97;6.33;;;14.50;99.90;;;;;;496637;239;29263;-75
2023/09/08 04:07:27;;;;;;;8.37;6.80;;;14.40;99.90;;;;;;496627;239;29343;-75
2023/09/08 04:09:28;;;;;;;8.97;6.70;;;14.40;99.90;;;;;;496601;239;29259;-75
2023/09/08 04:11:29;;;;;;;8.10;7.10;;;14.30;99.90;;;;;;496564;239;28974;-76
2023/09/08 04:13:31;;;;;;;7.33;6.63;;;14.30;99.90;;;;;;496610;239;29277;-76
2023/09/08 04:15:33;;;;;;;7.43;6.60;;;14.30;99.90;;;;;;496624;239;29298;-76
2023/09/08 04:17:35;;;;;;;7.43;6.63;;;14.30;99.90;;;;;;496613;239;28814;-75
2023/09/08 04:19:35;;;;;;;7.20;6.33;;;14.40;99.90;;;;;;496521;238;28824;-75
2023/09/08 04:21:37;;;;;;;9.97;6.57;;;14.40;99.90;;;;;;496644;239;29284;-75
2023/09/08 04:23:38;;;;;;;6.33;5.73;;;14.40;99.90;;;;;;496592;239;29265;-75
2023/09/08 04:27:50;;;;;;;8.40;6.70;;;14.30;99.90;;;;;;496557;239;28828;-76
2023/09/08 04:29:57;;;;;;;8.23;7.10;;;14.40;99.90;;;;;;496636;239;28921;-75
2023/09/08 04:31:59;;;;;;;7.93;7.13;;;14.40;99.90;;;;;;496607;239;28873;-73
2023/09/08 04:34:11;;;;;;;7.27;6.57;;;14.30;99.90;;;;;;496581;239;28838;-73
2023/09/08 04:36:13;;;;;;;9.87;7.00;;;14.30;99.90;;;;;;496607;239;28831;-73
2023/09/08 04:38:32;;;;;;;6.57;5.80;;;14.30;99.90;;;;;;496630;239;28491;-72
2023/09/08 04:40:34;;;;;;;7.27;6.43;;;14.30;99.90;;;;;;496625;239;28635;-74
2023/09/08 04:44:39;;;;;;;7.17;6.47;;;14.30;99.90;;;;;;496633;239;28866;-74
2023/09/08 04:46:40;;;;;;;6.40;5.80;;;14.20;99.90;;;;;;496589;239;28809;-73
2023/09/08 04:48:43;;;;;;;6.80;6.10;;;14.20;99.90;;;;;;496578;239;29021;-73
2023/09/08 04:50:44;;;;;;;8.00;7.20;;;14.20;99.90;;;;;;496660;239;28901;-74
2023/09/08 04:54:53;;;;;;;9.23;6.30;;;14.10;99.90;;;;;;496619;239;28804;-74
2023/09/08 04:57:03;;;;;;;7.33;6.50;;;14.20;99.90;;;;;;496588;239;28834;-73
2023/09/08 04:59:04;;;;;;;7.80;7.00;;;14.20;99.90;;;;;;496660;239;28834;-73
2023/09/08 05:01:05;;;;;;;7.60;6.90;;;14.20;99.90;;;;;;496635;239;28441;-73
2023/09/08 05:03:07;;;;;;;8.30;6.60;;;14.20;99.90;;;;;;496639;239;29242;-73
2023/09/08 05:05:11;;;;;;;10.80;5.93;;;14.20;99.90;;;;;;496620;239;29336;-75
2023/09/08 05:07:13;;;;;;;6.60;6.00;;;14.20;99.90;;;;;;496658;239;28820;-74
2023/09/08 05:09:23;;;;;;;7.27;6.43;;;14.20;99.90;;;;;;496600;239;29050;-73
2023/09/08 05:11:25;;;;;;;10.23;7.63;;;14.30;99.90;;;;;;496587;239;28858;-73
2023/09/08 05:13:26;;;;;;;7.00;6.30;;;14.30;99.90;;;;;;496609;239;29348;-74
2023/09/08 05:15:26;;;;;;;7.13;6.40;;;14.20;99.90;;;;;;496624;239;29313;-73
2023/09/08 05:17:31;;;;;;;7.63;6.93;;;14.10;99.90;;;;;;496559;239;29008;-75
2023/09/08 05:19:32;;;;;;;9.23;7.37;;;14.10;99.90;;;;;;496599;239;29402;-75
2023/09/08 05:21:37;;;;;;;8.30;7.03;;;14.10;99.90;;;;;;496641;239;29342;-73
2023/09/08 05:23:38;;;;;;;7.97;7.00;;;14.00;99.90;;;;;;496624;239;28917;-74
2023/09/08 05:25:42;;;;;;;8.63;7.73;;;13.90;99.90;;;;;;496613;239;28810;-75
2023/09/08 05:27:45;;;;;;;7.67;6.87;;;13.80;99.90;;;;;;496638;239;28847;-77
2023/09/08 05:29:48;;;;;;;8.63;7.73;;;13.80;99.90;;;;;;496601;239;28387;-75
2023/09/08 05:31:49;;;;;;;8.13;7.33;;;13.80;99.90;;;;;;496595;239;28911;-75
2023/09/08 05:33:53;;;;;;;11.07;7.40;;;13.80;99.90;;;;;;496550;239;28520;-76
2023/09/08 05:35:55;;;;;;;7.90;7.10;;;13.90;99.90;;;;;;496607;239;28444;-73
2023/09/08 05:37:56;;;;;;;9.27;7.17;;;13.90;99.90;;;;;;496595;239;29182;-75
2023/09/08 05:40:04;;;;;;;7.77;6.93;;;14.00;99.90;;;;;;496528;239;29368;-74
2023/09/08 05:42:04;;;;;;;8.20;7.00;;;14.00;99.90;;;;;;496570;239;29317;-74
2023/09/08 05:44:06;;;;;;;9.17;7.23;;;14.20;99.90;;;;;;496553;239;29485;-73
2023/09/08 05:46:07;;;;;;;8.70;6.70;;;14.20;99.90;;;;;;496606;239;28935;-76
2023/09/08 05:48:08;;;;;;;9.30;7.40;;;14.30;99.90;;;;;;496591;237;28913;-75
2023/09/08 05:50:10;;;;;;;8.33;7.50;;;14.40;99.90;;;;;;496618;239;28926;-73
2023/09/08 05:52:11;;;;;;;7.10;6.40;;;14.40;99.90;;;;;;496569;239;28938;-75
2023/09/08 05:54:12;;;;;;;8.10;7.30;;;14.40;99.90;;;;;;496632;239;28868;-73
2023/09/08 05:56:13;;;;;;;6.83;6.23;;;14.50;99.90;;;;;;496649;239;28925;-72
2023/09/08 05:58:14;;;;;;;8.30;7.50;;;14.50;99.90;;;;;;496630;239;28871;-72
2023/09/08 06:00:17;;;;;;;7.97;7.17;;;14.50;99.90;;;;;;496590;239;28799;-73
2023/09/08 06:02:18;;;;;;;8.20;7.27;;;14.60;99.90;;;;;;496556;239;28826;-73
2023/09/08 06:04:19;;;;;;;7.83;7.10;;;14.50;99.90;;;;;;496638;239;28817;-72
2023/09/08 06:06:21;;;;;;;8.47;7.50;;;14.50;99.90;;;;;;496610;239;28889;-74
2023/09/08 06:08:25;;;;;;;7.20;6.50;;;14.60;99.90;;;;;;496599;239;28899;-76
2023/09/08 06:10:26;;;;;;;13.10;7.53;;;14.60;99.90;;;;;;496602;239;28811;-74
2023/09/08 06:12:27;;;;;;;9.17;8.27;;;14.60;99.90;;;;;;496616;239;28806;-73
2023/09/08 06:14:28;;;;;;;8.30;7.20;;;14.70;99.90;;;;;;496591;239;28871;-77
2023/09/08 06:16:37;;;;;;;8.23;7.43;;;14.70;99.90;;;;;;496542;239;28418;-73
2023/09/08 06:18:40;;;;;;;9.20;7.73;;;14.80;99.90;;;;;;496511;239;28835;-73
2023/09/08 06:20:41;;;;;;;8.17;7.37;;;14.80;99.90;;;;;;496531;238;28824;-76
2023/09/08 06:22:43;;;;;;;8.53;7.03;;;14.90;99.90;;;;;;496600;239;28870;-75
2023/09/08 06:24:59;;;;;;;7.97;7.27;;;15.00;99.90;;;;;;496581;239;28800;-74
2023/09/08 06:27:00;;;;;;;6.87;6.17;;;15.00;99.90;;;;;;496589;239;28864;-77
2023/09/08 06:31:09;;;;;;;8.27;7.40;;;15.00;99.90;;;;;;496580;239;28867;-75
2023/09/08 06:33:10;;;;;;;7.60;6.60;;;15.10;99.90;;;;;;496550;239;28818;-75
2023/09/08 06:35:11;;;;;;;6.97;6.20;;;15.10;99.90;;;;;;496607;239;29262;-75
2023/09/08 06:39:17;;;;;;;7.20;6.50;;;15.20;99.90;;;;;;496576;239;28849;-72
2023/09/08 06:41:18;;;;;;;8.03;7.20;;;15.30;99.90;;;;;;496523;239;28844;-72
2023/09/08 06:43:19;;;;;;;7.80;6.43;;;15.30;99.90;;;;;;496603;238;28990;-75
2023/09/08 06:45:27;;;;;;;7.27;6.57;;;15.40;99.90;;;;;;496604;239;29334;-76
2023/09/08 06:47:28;;;;;;;8.33;5.90;;;15.50;99.90;;;;;;496587;239;28923;-75
2023/09/08 06:49:35;;;;;;;6.80;6.20;;;15.50;99.90;;;;;;496593;239;28841;-76
2023/09/08 06:51:36;;;;;;;6.30;5.70;;;15.60;99.90;;;;;;496573;239;28920;-75
2023/09/08 06:53:38;;;;;;;6.23;5.40;;;15.70;99.90;;;;;;496536;239;28858;-75
2023/09/08 06:55:39;;;;;;;7.20;6.50;;;15.70;99.90;;;;;;496611;239;29269;-76
2023/09/08 06:57:40;;;;;;;7.27;5.90;;;15.80;99.90;;;;;;496572;239;29353;-76
2023/09/08 06:59:41;;;;;;;6.77;6.00;;;15.80;99.90;;;;;;496578;239;29334;-75
2023/09/08 07:01:45;;;;;;;12.33;7.53;;;15.80;99.90;;;;;;496556;239;28843;-75
2023/09/08 07:03:47;;;;;;;7.07;6.37;;;15.90;99.90;;;;;;496595;239;28856;-80
2023/09/08 07:05:48;;;;;;;6.50;5.90;;;15.90;99.90;;;;;;496605;239;28807;-75
2023/09/08 07:07:49;;;;;;;6.70;5.70;;;16.00;99.90;;;;;;496588;239;29396;-76
2023/09/08 07:09:51;;;;;;;7.10;6.37;;;16.10;99.90;;;;;;496558;239;29289;-75
2023/09/08 07:11:53;;;;;;;11.23;6.67;;;16.20;99.90;;;;;;496570;239;28972;-75
2023/09/08 07:14:00;;;;;;;6.40;5.80;;;16.20;99.90;;;;;;496594;239;29245;-75
2023/09/08 07:16:01;;;;;;;6.40;5.80;;;16.30;99.90;;;;;;496619;239;28902;-74
2023/09/08 07:18:03;;;;;;;6.67;5.90;;;16.40;99.90;;;;;;496578;239;28841;-74
2023/09/08 07:20:04;;;;;;;7.80;6.80;;;16.50;99.90;;;;;;496613;239;28848;-75
2023/09/08 07:22:06;;;;;;;9.23;6.30;;;16.60;99.90;;;;;;496596;239;28870;-75
2023/09/08 07:24:06;;;;;;;6.60;6.00;;;16.60;99.90;;;;;;496601;239;29223;-73
2023/09/08 07:26:08;;;;;;;7.17;6.47;;;16.70;99.90;;;;;;496629;239;29361;-74
2023/09/08 07:28:10;;;;;;;8.87;6.87;;;16.80;99.90;;;;;;496611;239;28866;-76
2023/09/08 07:30:11;;;;;;;7.53;6.77;;;16.90;99.90;;;;;;496586;239;28790;-74
2023/09/08 07:32:18;;;;;;;7.77;6.97;;;16.90;99.90;;;;;;496587;239;29276;-76
2023/09/08 07:34:19;;;;;;;7.20;6.10;;;17.10;99.90;;;;;;496613;239;28869;-74
2023/09/08 07:36:20;;;;;;;8.30;6.20;;;17.10;99.90;;;;;;496574;239;28877;-75
2023/09/08 07:38:22;;;;;;;7.57;6.87;;;17.30;99.90;;;;;;496559;239;29327;-74
2023/09/08 07:40:23;;;;;;;6.93;6.23;;;17.40;99.90;;;;;;496569;239;29318;-75
2023/09/08 07:42:27;;;;;;;6.93;6.23;;;17.50;99.90;;;;;;496572;239;29435;-75
2023/09/08 07:44:29;;;;;;;6.83;6.03;;;17.50;99.90;;;;;;496585;239;28893;-75
2023/09/08 07:46:30;;;;;;;6.93;6.23;;;17.60;99.90;;;;;;496548;239;28891;-74
2023/09/08 07:48:31;;;;;;;6.70;5.83;;;17.70;99.90;;;;;;496550;239;30026;-74
2023/09/08 07:50:38;;;;;;;6.70;6.10;;;17.80;99.90;;;;;;496599;239;29248;-76
2023/09/08 07:52:40;;;;;;;6.60;5.87;;;17.80;99.90;;;;;;496609;239;28848;-75
2023/09/08 07:54:41;;;;;;;6.90;6.10;;;17.90;99.90;;;;;;496593;239;29287;-75
2023/09/08 07:56:42;;;;;;;9.10;6.40;;;18.10;99.90;;;;;;496594;239;29364;-74
2023/09/08 07:58:43;;;;;;;6.87;6.10;;;18.20;99.90;;;;;;496567;239;30045;-75
2023/09/08 08:00:51;;;;;;;9.27;7.30;;;18.20;99.90;;;;;;496604;239;29259;-76
2023/09/08 08:02:53;;;;;;;7.10;6.40;;;18.30;99.90;;;;;;496627;239;29322;-75
2023/09/08 08:04:54;;;;;;;8.03;7.23;;;18.40;99.90;;;;;;496612;239;28959;-75
2023/09/08 08:06:55;;;;;;;6.60;6.00;;;18.50;99.90;;;;;;496576;239;29335;-75
2023/09/08 08:08:57;;;;;;;7.20;6.47;;;18.60;99.90;;;;;;496611;239;29470;-74
2023/09/08 08:11:04;;;;;;;6.90;6.20;;;18.60;99.90;;;;;;496606;239;29389;-75
2023/09/08 08:13:05;;;;;;;8.10;6.10;;;18.70;99.90;;;;;;496634;239;28879;-76
2023/09/08 08:15:06;;;;;;;6.73;5.97;;;18.90;99.90;;;;;;496597;239;28830;-74
2023/09/08 08:17:07;;;;;;;8.70;6.93;;;19.20;99.90;;;;;;496585;239;29315;-75
2023/09/08 08:19:15;;;;;;;7.23;6.40;;;19.20;99.90;;;;;;496570;239;29382;-77
2023/09/08 08:21:16;;;;;;;6.47;5.80;;;19.30;99.90;;;;;;496636;239;28892;-75
2023/09/08 08:23:17;;;;;;;7.70;6.87;;;19.50;99.90;;;;;;496562;239;28831;-76
2023/09/08 08:25:18;;;;;;;7.47;5.83;;;19.60;99.90;;;;;;496583;239;29246;-75
2023/09/08 08:27:20;;;;;;;6.27;5.70;;;19.70;99.90;;;;;;496579;239;29257;-74
2023/09/08 08:29:21;;;;;;;8.17;5.90;;;19.70;99.90;;;;;;496617;239;29345;-75
2023/09/08 08:31:33;;;;;;;6.20;5.70;;;19.70;99.90;;;;;;496626;239;28827;-76
2023/09/08 08:33:32;;;;;;;7.10;6.13;;;19.80;99.90;;;;;;496589;239;28826;-74
2023/09/08 08:35:34;;;;;;;8.07;5.90;;;19.80;99.90;;;;;;496582;239;28868;-75
2023/09/08 08:37:35;;;;;;;7.57;6.87;;;19.90;99.90;;;;;;496597;239;29313;-75
2023/09/08 08:39:42;;;;;;;8.40;6.40;;;20.00;99.90;;;;;;496619;239;29427;-75
2023/09/08 08:41:43;;;;;;;6.83;5.80;;;20.00;99.90;;;;;;496631;239;29364;-76
2023/09/08 08:43:50;;;;;;;6.63;5.60;;;20.00;99.90;;;;;;496554;239;29468;-75
2023/09/08 08:45:51;;;;;;;7.67;6.90;;;20.10;99.90;;;;;;496631;239;28890;-75
2023/09/08 08:47:53;;;;;;;6.60;6.00;;;20.20;99.90;;;;;;496554;239;28842;-76
2023/09/08 08:49:54;;;;;;;6.70;5.77;;;20.20;99.90;;;;;;496555;239;28894;-75
2023/09/08 08:51:55;;;;;;;6.97;6.27;;;20.50;99.90;;;;;;496573;239;28967;-75
2023/09/08 08:53:56;;;;;;;6.93;6.10;;;20.60;99.90;;;;;;496608;239;28905;-75
2023/09/08 08:58:02;;;;;;;6.77;6.10;;;20.70;99.90;;;;;;496569;239;28811;-75
2023/09/08 09:00:11;;;;;;;9.90;6.27;;;20.70;99.90;;;;;;496576;239;29303;-76
2023/09/08 09:02:11;;;;;;;9.93;5.80;;;20.80;99.90;;;;;;496618;239;28790;-74
2023/09/08 09:04:14;;;;;;;7.17;6.40;;;20.90;99.90;;;;;;496586;239;28914;-76
2023/09/08 09:06:15;;;;;;;6.57;5.83;;;21.00;99.90;;;;;;496570;239;28969;-75
2023/09/08 09:08:17;;;;;;;6.43;5.80;;;21.10;99.90;;;;;;496530;239;28881;-75
2023/09/08 09:10:17;;;;;;;6.57;5.70;;;21.30;99.90;;;;;;496599;239;29289;-73
2023/09/08 09:12:19;;;;;;;6.50;5.87;;;21.30;99.90;;;;;;496622;239;29317;-74
2023/09/08 09:14:20;;;;;;;6.50;5.77;;;21.30;99.90;;;;;;496584;239;28805;-74
2023/09/08 09:16:21;;;;;;;6.37;5.77;;;21.30;99.90;;;;;;496554;235;28893;-75
2023/09/08 09:18:23;;;;;;;6.00;5.40;;;21.40;99.90;;;;;;496593;239;28864;-75
2023/09/08 09:20:24;;;;;;;6.33;5.70;;;21.40;99.90;;;;;;496539;239;29719;-75
2023/09/08 09:22:44;;;;;;;13.50;7.00;;;21.40;99.90;;;;;;496591;239;29416;-73
2023/09/08 09:24:45;;;;;;;6.50;5.80;;;21.40;99.90;;;;;;496634;239;28843;-74
2023/09/08 09:26:55;;;;;;;6.67;5.57;;;21.40;99.90;;;;;;496598;239;29298;-73
2023/09/08 09:28:59;;;;;;;7.40;5.80;;;21.50;99.90;;;;;;496585;239;28801;-75
2023/09/08 09:33:02;;;;;;;6.10;5.40;;;21.60;99.90;;;;;;496600;239;29240;-75
2023/09/08 09:35:03;;;;;;;7.13;5.97;;;21.60;99.90;;;;;;496594;239;29336;-75
2023/09/08 09:37:13;;;;;;;7.27;5.40;;;21.70;99.90;;;;;;496571;239;29342;-75
2023/09/08 09:39:14;;;;;;;6.80;6.20;;;21.80;99.90;;;;;;496577;239;28956;-75
2023/09/08 09:41:17;;;;;;;6.73;6.07;;;22.00;99.90;;;;;;496563;239;28949;-74
2023/09/08 09:43:18;;;;;;;7.30;6.27;;;22.20;99.90;;;;;;496622;239;28852;-75
2023/09/08 09:45:28;;;;;;;8.50;6.17;;;22.10;99.90;;;;;;496564;239;28824;-74
2023/09/08 09:47:30;;;;;;;6.80;6.03;;;22.20;99.90;;;;;;496579;239;28856;-75
2023/09/08 09:49:33;;;;;;;7.20;5.60;;;22.20;99.90;;;;;;496533;239;28795;-74
2023/09/08 09:51:34;;;;;;;6.80;6.10;;;22.40;99.90;;;;;;496614;239;28833;-74
2023/09/08 09:53:42;;;;;;;6.23;5.63;;;22.30;99.90;;;;;;496600;239;29292;-75
2023/09/08 09:55:43;;;;;;;8.67;5.83;;;22.30;99.90;;;;;;496581;239;28794;-75
2023/09/08 09:57:44;;;;;;;7.30;6.43;;;22.30;99.90;;;;;;496569;239;29343;-74
2023/09/08 09:59:45;;;;;;;6.10;5.57;;;22.30;99.90;;;;;;496567;239;30164;-74
2023/09/08 10:01:49;;;;;;;6.53;5.93;;;22.30;99.90;;;;;;496634;239;29275;-74
2023/09/08 10:03:51;;;;;;;5.97;5.40;;;22.30;99.90;;;;;;496582;239;28862;-75
2023/09/08 10:05:52;;;;;;;6.57;5.97;;;22.30;99.90;;;;;;496553;239;29305;-74
2023/09/08 10:07:53;;;;;;;6.30;5.70;;;22.30;99.90;;;;;;496531;239;30041;-74
2023/09/08 10:09:54;;;;;;;6.73;5.60;;;22.40;99.90;;;;;;496626;239;29253;-74
2023/09/08 10:11:56;;;;;;;6.63;5.90;;;22.50;99.90;;;;;;496595;239;28908;-74
2023/09/08 10:13:57;;;;;;;6.07;5.53;;;22.50;99.90;;;;;;496573;239;28800;-74
2023/09/08 10:15:58;;;;;;;6.00;5.40;;;22.60;99.90;;;;;;496556;239;28946;-74
2023/09/08 10:17:59;;;;;;;10.40;5.70;;;22.60;99.90;;;;;;496598;239;28991;-77
2023/09/08 10:20:21;;;;;;;7.07;5.50;;;22.70;99.90;;;;;;496536;239;29289;-74
2023/09/08 10:22:22;;;;;;;8.00;5.83;;;22.60;99.90;;;;;;496561;239;28832;-76
2023/09/08 10:24:32;;;;;;;7.50;6.10;;;22.70;99.90;;;;;;496546;239;29328;-75
2023/09/08 10:26:34;;;;;;;6.60;5.90;;;22.70;99.90;;;;;;496572;239;28871;-75
2023/09/08 10:28:35;;;;;;;9.47;5.83;;;22.90;99.90;;;;;;496588;239;28872;-75
2023/09/08 10:30:36;;;;;;;7.80;6.63;;;23.20;99.90;;;;;;496573;239;29307;-75
2023/09/08 10:32:37;;;;;;;6.10;5.50;;;23.40;99.90;;;;;;496557;239;29251;-74
2023/09/08 10:34:39;;;;;;;8.20;6.10;;;23.40;99.90;;;;;;496551;239;29427;-74
2023/09/08 10:36:41;;;;;;;6.23;5.63;;;23.40;99.90;;;;;;496576;239;28831;-75
2023/09/08 10:38:56;;;;;;;7.13;5.47;;;23.40;99.90;;;;;;496591;239;29288;-77
2023/09/08 10:40:55;;;;;;;6.40;5.80;;;23.50;99.90;;;;;;496520;239;28853;-74
2023/09/08 10:45:22;;;;;;;6.40;5.80;;;23.50;99.90;;;;;;496624;239;28738;-76
2023/09/08 10:47:23;;;;;;;6.63;6.03;;;23.70;99.90;;;;;;496618;239;28813;-75
2023/09/08 10:49:25;;;;;;;6.50;5.83;;;23.60;99.90;;;;;;496547;239;28949;-75
2023/09/08 10:51:26;;;;;;;7.90;6.20;;;23.60;99.90;;;;;;496597;239;28856;-74
2023/09/08 10:53:33;;;;;;;6.03;5.47;;;23.50;99.90;;;;;;496610;239;28813;-74
2023/09/08 10:55:34;;;;;;;6.77;6.07;;;23.60;99.90;;;;;;496608;239;28908;-74
2023/09/08 10:57:35;;;;;;;6.37;5.70;;;23.50;99.90;;;;;;496580;239;28855;-74
2023/09/08 10:59:44;;;;;;;7.53;6.13;;;23.70;99.90;;;;;;496565;239;29417;-74
2023/09/08 11:01:46;;;;;;;6.70;6.10;;;23.70;99.90;;;;;;496612;239;28837;-75
2023/09/08 11:06:12;;;;;;;6.30;5.70;;;24.20;99.90;;;;;;496547;239;29344;-74
2023/09/08 11:08:14;;;;;;;6.70;6.00;;;24.60;99.90;;;;;;496603;239;28818;-75
2023/09/08 11:10:15;;;;;;;6.93;5.57;;;24.90;99.90;;;;;;496607;239;28828;-75